Terminal Aerodrome Forecast
Issued by NWS

Home | Current Version | Previous Version | Text Only | Print | Product List | Glossary On
Versions: 1 2 3 4 5 6 7 8 9 10 11 12 13 14 15
239
FTUS46 KMTR 241720
TAFOAK
TAF
KOAK 241720Z 2418/2524 29009KT P6SM SCT015 SCT150
      TEMPO 2418/2419 BKN015
     FM242000 30015KT P6SM FEW015 BKN150
     FM250400 29009KT P6SM BKN011
     FM250800 29008KT P6SM OVC008
     FM251700 29011KT P6SM SCT010
     FM252000 28015KT P6SM FEW015=

USA.gov is the U.S. government's official web portal to all federal, state and local government web resources and services.